EDT,Max TemperatureF,Mean TemperatureF,Min TemperatureF,Max Dew PointF,MeanDew PointF,Min DewpointF,Max Humidity, Mean Humidity, Min Humidity, Max Sea Level PressureIn, Mean Sea Level PressureIn, Min Sea Level PressureIn, Max VisibilityMiles, Mean VisibilityMiles, Min VisibilityMiles, Max Wind SpeedMPH, Mean Wind SpeedMPH, Max Gust SpeedMPH,PrecipitationIn, CloudCover, Events, WindDirDegrees
2012-10-1,69,59,49,53,52,50,100,78,55,29.94,29.74,29.64,10,9,2,17,6,23,0.02,7,Rain,209
2012-10-2,62,56,49,58,55,49,100,89,78,30.05,30.01,29.94,10,7,2,7,1,9,0.07,6,Rain,187
2012-10-3,63,61,58,63,60,57,100,97,93,30.12,30.06,30.02,10,4,1,6,1,7,0.14,8,Rain,26
2012-10-4,67,60,53,66,63,55,100,100,100,30.13,30.08,30.03,8,3,0,10,2,13,0.03,6,Fog-Rain,187
2012-10-5,73,64,54,62,57,54,100,81,61,30.04,29.99,29.89,10,4,0,12,5,14,0.02,6,Fog-Rain,191
2012-10-6,63,54,45,63,55,38,100,77,54,29.97,29.80,29.71,10,6,2,16,6,25,0.01,6,Rain,225
2012-10-7,54,46,37,46,40,37,100,77,54,30.09,30.05,29.98,10,10,2,13,3,18,0.15,5,Rain,192
2012-10-8,54,45,35,45,41,35,100,75,50,30.31,30.20,30.08,10,8,2,8,2,13,0.00,5,,124
2012-10-9,58,45,32,48,38,33,100,79,57,30.30,30.25,30.11,10,6,0,10,2,13,0.00,5,Fog,93
2012-10-10,56,50,43,55,50,40,100,86,71,30.10,29.87,29.73,10,7,2,17,5,24,0.17,7,Rain,207
2012-10-11,54,45,36,39,35,31,92,67,41,30.12,30.05,29.88,10,10,10,20,7,26,T,5,Rain,217
2012-10-12,50,39,28,42,30,18,100,68,36,30.43,30.19,30.01,10,10,10,23,8,30,0.03,4,Rain,300
2012-10-13,51,37,22,39,26,21,100,66,32,30.51,30.40,30.25,10,10,10,16,4,20,0.02,1,Rain,183
2012-10-14,57,49,40,53,46,39,100,97,93,30.20,30.00,29.83,10,5,0,9,2,12,0.30,6,Fog-Rain,206
2012-10-15,67,55,42,61,52,43,100,87,73,29.83,29.68,29.59,10,7,1,20,5,25,0.14,5,Rain,211
2012-10-16,54,41,28,43,34,29,100,73,46,29.94,29.79,29.66,10,10,10,17,6,23,0.00,4,,266
2012-10-17,57,42,26,39,33,27,100,73,46,30.03,29.98,29.92,10,8,0,8,1,14,0.00,2,Fog,167
2012-10-18,67,49,31,46,38,30,100,69,37,30.05,30.00,29.94,10,7,2,15,3,18,0.00,0,,172
2012-10-19,59,55,51,59,55,46,100,92,83,30.01,29.82,29.67,10,5,0,12,5,14,3.06,8,Fog-Rain,24
2012-10-20,68,54,40,60,53,41,100,75,49,29.76,29.66,29.61,10,7,0,20,4,25,0.05,4,Fog-Rain-Thunderstorm,205
2012-10-21,58,48,37,48,42,37,100,78,55,29.93,29.86,29.77,10,10,1,16,5,24,0.01,5,Rain,221
2012-10-22,66,54,41,46,42,37,100,69,37,30.05,29.99,29.94,10,10,8,18,4,25,0.01,3,,322
2012-10-23,57,47,36,45,42,37,100,81,62,30.16,30.12,30.07,10,10,3,12,2,15,0.00,3,,66
2012-10-24,54,50,46,45,40,33,80,63,46,30.22,30.18,30.14,10,10,10,9,1,10,0.00,8,,72
2012-10-25,60,55,49,52,48,42,93,77,61,30.27,30.23,30.20,10,10,10,14,3,20,0.00,7,,201
2012-10-26,60,58,55,54,53,52,93,84,75,30.22,30.17,30.12,10,8,6,12,5,18,0.00,8,,192
2012-10-27,66,56,45,55,50,45,100,82,63,30.13,30.04,29.97,10,6,0,10,1,15,0.00,6,Fog,188
2012-10-28,61,55,49,52,46,38,96,72,47,30.00,29.94,29.85,10,10,6,14,7,17,0.00,1,,29
2012-10-29,61,57,52,57,48,44,93,81,69,29.83,29.56,29.19,10,10,6,33,16,43,0.33,8,Rain,24
2012-10-30,67,58,49,58,49,43,90,66,42,29.49,29.40,29.21,10,10,10,28,9,40,0.06,6,Rain,119
2012-10-31,56,50,43,50,42,35,100,80,59,29.54,29.48,29.41,10,9,3,18,8,24,0.26,7,Rain,183